createdAt,value
2023-03-06T00:00:30.924Z,93012.94
2023-03-06T00:02:57.824Z,93003.44
2023-03-06T00:05:24.310Z,92981.91
2023-03-06T00:07:50.757Z,93002.00
2023-03-06T00:10:22.810Z,93009.22
2023-03-06T00:12:52.631Z,93004.41
2023-03-06T00:15:19.602Z,92974.53
2023-03-06T00:17:46.205Z,93005.09
2023-03-06T00:20:13.401Z,92994.63
2023-03-06T00:22:40.656Z,92960.69
2023-03-06T00:25:08.461Z,92963.56
2023-03-06T00:27:39.056Z,92984.16
2023-03-06T00:30:06.405Z,92961.00
2023-03-06T00:32:32.890Z,92951.72
2023-03-06T00:34:59.298Z,92965.22
2023-03-06T00:37:28.832Z,92947.19
2023-03-06T00:39:55.274Z,92953.63
2023-03-06T00:42:21.750Z,92962.00
2023-03-06T00:44:48.154Z,92948.16
2023-03-06T00:47:17.158Z,92940.13
2023-03-06T00:49:46.688Z,92930.13
2023-03-06T00:52:19.510Z,92921.50
2023-03-06T00:54:45.874Z,92927.94
2023-03-06T00:57:12.593Z,92949.78
2023-03-06T00:59:38.990Z,92899.00
2023-03-06T01:02:06.024Z,92914.06
2023-03-06T01:04:42.511Z,92935.00
2023-03-06T01:07:08.971Z,92914.75
2023-03-06T01:09:46.652Z,92919.84
2023-03-06T01:12:13.055Z,92908.91
2023-03-06T01:14:39.420Z,92891.53
2023-03-06T01:17:05.857Z,92898.94
2023-03-06T01:19:35.425Z,92885.09
2023-03-06T01:22:01.814Z,92882.19
2023-03-06T01:24:28.573Z,92900.28
2023-03-06T01:26:55.009Z,92871.91
2023-03-06T01:29:21.386Z,92870.47
2023-03-06T01:31:47.884Z,92865.63
2023-03-06T01:34:14.304Z,92871.25
2023-03-06T01:36:40.778Z,92846.66
2023-03-06T01:39:07.254Z,92877.03
2023-03-06T01:41:33.747Z,92870.59
2023-03-06T01:44:00.218Z,92855.81
2023-03-06T01:46:32.712Z,92865.53
2023-03-06T01:49:20.422Z,92846.25
2023-03-06T01:52:08.955Z,92856.69
2023-03-06T01:54:37.928Z,92849.44
2023-03-06T01:57:09.456Z,92848.81
2023-03-06T01:59:38.165Z,92822.16
2023-03-06T02:02:08.064Z,92838.16
2023-03-06T02:04:36.258Z,92835.59
2023-03-06T02:07:06.039Z,92833.91
2023-03-06T02:09:34.108Z,92807.97
2023-03-06T02:12:02.344Z,92797.38
2023-03-06T02:14:29.988Z,92790.44
2023-03-06T02:16:56.465Z,92819.75
2023-03-06T02:19:50.192Z,92828.09
2023-03-06T02:22:16.641Z,92797.34
2023-03-06T02:25:03.271Z,92792.53
2023-03-06T02:27:33.801Z,92822.97
2023-03-06T02:30:00.193Z,92811.41
2023-03-06T02:32:26.716Z,92799.16
2023-03-06T02:34:56.318Z,92782.53
2023-03-06T02:37:24.483Z,92800.84
2023-03-06T02:40:00.577Z,92782.16
2023-03-06T02:42:28.868Z,92799.16
2023-03-06T02:44:59.256Z,92790.91
2023-03-06T02:47:25.703Z,92771.94
2023-03-06T02:50:02.458Z,92790.47
2023-03-06T02:52:28.959Z,92765.25
2023-03-06T02:54:55.397Z,92758.81
2023-03-06T02:57:21.809Z,92780.97
2023-03-06T02:59:48.227Z,92760.47
2023-03-06T03:02:14.770Z,92778.81
2023-03-06T03:04:41.230Z,92742.84
2023-03-06T03:07:08.203Z,92757.31
2023-03-06T03:09:36.978Z,92744.28
2023-03-06T03:12:07.363Z,92777.69
2023-03-06T03:14:33.872Z,92771.13
2023-03-06T03:17:00.559Z,92773.34
2023-03-06T03:19:27.002Z,92760.19
2023-03-06T03:21:53.388Z,92765.72
2023-03-06T03:24:19.824Z,92776.34
2023-03-06T03:26:48.252Z,92731.69
2023-03-06T03:29:14.714Z,92764.72
2023-03-06T03:31:41.133Z,92751.25
2023-03-06T03:34:08.635Z,92759.59
2023-03-06T03:36:35.166Z,92787.84
2023-03-06T03:39:01.590Z,92754.16
2023-03-06T03:41:27.974Z,92747.38
2023-03-06T03:43:54.352Z,92771.47
2023-03-06T03:46:21.784Z,92760.59
2023-03-06T03:48:48.324Z,92754.16
2023-03-06T03:51:20.489Z,92759.00
2023-03-06T03:53:47.293Z,92767.00
2023-03-06T03:56:13.749Z,92750.66
2023-03-06T03:58:40.306Z,92762.25
2023-03-06T04:01:10.786Z,92735.00
2023-03-06T04:03:37.179Z,92755.22
2023-03-06T04:06:03.730Z,92749.09
2023-03-06T04:08:30.278Z,92752.31
2023-03-06T04:11:15.537Z,92766.44
2023-03-06T04:13:41.978Z,92749.41
2023-03-06T04:16:08.475Z,92748.16
2023-03-06T04:18:35.002Z,92765.16
2023-03-06T04:21:01.373Z,92761.97
2023-03-06T04:23:27.908Z,92736.63
2023-03-06T04:25:54.500Z,92732.75
2023-03-06T04:28:21.077Z,92738.38
2023-03-06T04:30:47.593Z,92744.63
2023-03-06T04:33:14.063Z,92758.75
2023-03-06T04:35:40.552Z,92748.78
2023-03-06T04:38:06.990Z,92735.97
2023-03-06T04:40:35.214Z,92754.91
2023-03-06T04:43:02.868Z,92752.97
2023-03-06T04:45:30.725Z,92748.16
2023-03-06T04:47:57.319Z,92728.88
2023-03-06T04:50:25.417Z,92730.81
2023-03-06T04:52:52.304Z,92737.09
2023-03-06T04:55:22.754Z,92724.72
2023-03-06T04:57:49.229Z,92734.00
2023-03-06T05:00:19.183Z,92720.06
2023-03-06T05:02:46.403Z,92740.28
2023-03-06T05:05:19.261Z,92747.19
2023-03-06T05:07:45.680Z,92746.69
2023-03-06T05:10:15.237Z,92727.63
2023-03-06T05:12:42.212Z,92720.56
2023-03-06T05:15:09.976Z,92736.63
2023-03-06T05:17:37.069Z,92715.09
2023-03-06T05:20:07.837Z,92733.91
2023-03-06T05:22:34.622Z,92742.69
2023-03-06T05:25:01.384Z,92738.88
2023-03-06T05:27:28.703Z,92698.44
2023-03-06T05:29:55.245Z,92708.72
2023-03-06T05:32:22.032Z,92732.13
2023-03-06T05:34:49.226Z,92723.78
2023-03-06T05:37:15.783Z,92718.34
2023-03-06T05:39:42.639Z,92711.59
2023-03-06T05:42:09.072Z,92690.44
2023-03-06T05:44:35.901Z,92721.84
2023-03-06T05:47:09.108Z,92721.84
2023-03-06T05:49:36.203Z,92734.53
2023-03-06T05:52:04.478Z,92713.84
2023-03-06T05:54:32.343Z,92730.34
2023-03-06T05:56:59.267Z,92702.28
2023-03-06T05:59:28.404Z,92746.56
2023-03-06T06:01:55.539Z,92728.25
2023-03-06T06:04:23.479Z,92749.75
2023-03-06T06:06:58.826Z,92736.63
2023-03-06T06:09:33.278Z,92711.59
2023-03-06T06:12:02.494Z,92723.78
2023-03-06T06:14:33.633Z,92699.72
2023-03-06T06:17:02.081Z,92724.09
2023-03-06T06:19:30.279Z,92738.84
2023-03-06T06:21:57.210Z,92726.34
2023-03-06T06:24:34.173Z,92720.56
2023-03-06T06:27:17.009Z,92735.63
2023-03-06T06:29:43.382Z,92711.28
2023-03-06T06:32:09.852Z,92721.84
2023-03-06T06:34:36.238Z,92721.53
2023-03-06T06:37:02.749Z,92732.44
2023-03-06T06:39:29.697Z,92735.97
2023-03-06T06:42:14.679Z,92731.00
2023-03-06T06:44:55.641Z,92731.63
2023-03-06T06:47:24.572Z,92747.66
2023-03-06T06:49:57.683Z,92744.94
2023-03-06T06:52:24.696Z,92750.72
2023-03-06T06:54:52.420Z,92738.03
2023-03-06T06:57:18.918Z,92758.59
2023-03-06T06:59:45.352Z,92740.13
2023-03-06T07:02:13.502Z,92760.00
2023-03-06T07:04:52.231Z,92733.06
2023-03-06T07:07:26.724Z,92736.25
2023-03-06T07:09:53.113Z,92738.13
2023-03-06T07:12:23.518Z,92717.91
2023-03-06T07:14:49.997Z,92743.41
2023-03-06T07:17:40.298Z,92760.69
2023-03-06T07:20:10.568Z,92732.88
2023-03-06T07:22:50.343Z,92712.25
2023-03-06T07:25:25.070Z,92735.16
2023-03-06T07:27:56.685Z,92738.69
2023-03-06T07:30:23.447Z,92732.66
2023-03-06T07:32:53.272Z,92758.59
2023-03-06T07:35:20.843Z,92733.91
2023-03-06T07:37:47.469Z,92757.91
2023-03-06T07:40:13.833Z,92748.91
2023-03-06T07:42:40.266Z,92724.88
2023-03-06T07:45:08.668Z,92735.75
2023-03-06T07:47:36.145Z,92745.63
2023-03-06T07:50:07.189Z,92758.13
2023-03-06T07:52:34.547Z,92769.03
2023-03-06T07:55:00.965Z,92739.28
2023-03-06T07:57:27.518Z,92762.03
2023-03-06T07:59:53.930Z,92752.66
2023-03-06T08:02:26.269Z,92748.44
2023-03-06T08:04:54.309Z,92768.84
2023-03-06T08:07:21.913Z,92746.50
2023-03-06T08:09:48.551Z,92768.66
2023-03-06T08:12:16.623Z,92767.56
2023-03-06T08:14:43.129Z,92748.25
2023-03-06T08:17:09.509Z,92745.13
2023-03-06T08:19:35.933Z,92737.28
2023-03-06T08:22:04.456Z,92752.34
2023-03-06T08:24:31.000Z,92743.66
2023-03-06T08:26:57.572Z,92748.44
2023-03-06T08:29:27.405Z,92736.44
2023-03-06T08:31:54.825Z,92754.63
2023-03-06T08:34:24.337Z,92769.97
2023-03-06T08:36:51.500Z,92758.09
2023-03-06T08:39:18.562Z,92762.56
2023-03-06T08:41:49.095Z,92768.06
2023-03-06T08:44:15.527Z,92764.34
2023-03-06T08:46:41.948Z,92754.28
2023-03-06T08:49:09.807Z,92776.22
2023-03-06T08:51:36.271Z,92763.88
2023-03-06T08:54:03.123Z,92792.38
2023-03-06T08:56:31.776Z,92781.09
2023-03-06T08:59:00.853Z,92792.13
2023-03-06T09:01:29.594Z,92789.72
2023-03-06T09:03:58.244Z,92795.19
2023-03-06T09:06:26.631Z,92791.13
2023-03-06T09:08:56.189Z,92790.22
2023-03-06T09:11:24.086Z,92810.97
2023-03-06T09:13:53.708Z,92796.75
2023-03-06T09:16:20.233Z,92776.63
2023-03-06T09:18:46.646Z,92772.88
2023-03-06T09:21:13.027Z,92782.06
2023-03-06T09:23:39.679Z,92765.41
2023-03-06T09:26:08.477Z,92793.56
2023-03-06T09:28:38.825Z,92765.06
2023-03-06T09:31:16.113Z,92804.63
2023-03-06T09:33:42.698Z,92810.03
2023-03-06T09:36:14.486Z,92809.47
2023-03-06T09:38:41.054Z,92799.06
2023-03-06T09:41:26.292Z,92811.88
2023-03-06T09:43:58.950Z,92785.56
2023-03-06T09:46:58.299Z,92804.84
2023-03-06T09:49:52.685Z,92813.84
2023-03-06T09:52:46.002Z,92816.47
2023-03-06T09:55:20.924Z,92774.91
2023-03-06T09:57:57.088Z,92815.88
2023-03-06T10:00:28.014Z,92814.97
2023-03-06T10:03:07.984Z,92819.09
2023-03-06T10:05:42.311Z,92793.22
2023-03-06T10:08:44.586Z,92787.50
2023-03-06T10:11:22.218Z,92803.50
2023-03-06T10:13:54.053Z,92805.84
2023-03-06T10:16:27.745Z,92820.81
2023-03-06T10:18:57.911Z,92816.88
2023-03-06T10:21:49.541Z,92819.38
2023-03-06T10:24:25.942Z,92806.50
2023-03-06T10:27:06.545Z,92816.59
2023-03-06T10:30:02.291Z,92814.84
2023-03-06T10:32:48.572Z,92815.53
2023-03-06T10:35:19.809Z,92794.81
2023-03-06T10:37:49.100Z,92816.59
2023-03-06T10:40:21.534Z,92818.00
2023-03-06T10:42:58.763Z,92798.50
2023-03-06T10:45:49.455Z,92823.97
2023-03-06T10:48:25.703Z,92809.84
2023-03-06T10:50:54.890Z,92791.25
2023-03-06T10:53:23.161Z,92817.50
2023-03-06T10:55:59.367Z,92809.59
2023-03-06T10:58:30.898Z,92822.97
2023-03-06T11:01:11.158Z,92814.97
2023-03-06T11:03:46.148Z,92802.03
2023-03-06T11:06:36.978Z,92809.81
2023-03-06T11:09:18.741Z,92815.78
2023-03-06T11:11:46.205Z,92806.28
2023-03-06T11:14:19.826Z,92812.91
2023-03-06T11:16:54.916Z,92794.38
2023-03-06T11:19:27.143Z,92780.63
2023-03-06T11:22:01.389Z,92806.25
2023-03-06T11:24:40.602Z,92799.41
2023-03-06T11:27:34.344Z,92786.31
2023-03-06T11:30:14.458Z,92789.84
2023-03-06T11:32:53.999Z,92806.00
2023-03-06T11:35:35.833Z,92806.09
2023-03-06T11:38:14.279Z,92795.28
2023-03-06T11:41:05.723Z,92805.09
2023-03-06T11:43:56.617Z,92803.34
2023-03-06T11:46:43.886Z,92798.19
2023-03-06T11:49:24.574Z,92795.25
2023-03-06T11:52:05.063Z,92770.91
2023-03-06T11:54:32.300Z,92777.94
2023-03-06T11:57:04.266Z,92796.69
2023-03-06T12:00:11.716Z,92792.97
2023-03-06T12:02:47.168Z,92787.09
2023-03-06T12:05:46.077Z,92779.69
2023-03-06T12:08:39.725Z,92774.81
2023-03-06T12:11:19.702Z,92775.00
2023-03-06T12:14:15.903Z,92772.59
2023-03-06T12:17:00.285Z,92775.19
2023-03-06T12:19:54.213Z,92754.00
2023-03-06T12:22:53.391Z,92751.84
2023-03-06T12:25:40.211Z,92758.38
2023-03-06T12:28:11.971Z,92751.41
2023-03-06T12:30:44.492Z,92760.16
2023-03-06T12:33:10.946Z,92765.84
2023-03-06T12:35:47.516Z,92755.00
2023-03-06T12:38:29.106Z,92768.03
2023-03-06T12:41:01.446Z,92760.41
2023-03-06T12:43:49.808Z,92762.25
2023-03-06T12:46:20.459Z,92757.94
2023-03-06T12:49:03.928Z,92754.22
2023-03-06T12:51:31.966Z,92740.63
2023-03-06T12:54:01.764Z,92744.53
2023-03-06T12:56:31.170Z,92750.81
2023-03-06T12:59:02.634Z,92743.75
2023-03-06T13:01:57.468Z,92745.91
2023-03-06T13:04:35.293Z,92730.59
2023-03-06T13:07:19.897Z,92737.94
2023-03-06T13:10:10.719Z,92731.56
2023-03-06T13:13:18.726Z,92742.00
2023-03-06T13:16:06.065Z,92737.75
2023-03-06T13:18:32.386Z,92739.13
2023-03-06T13:20:59.988Z,92717.09
2023-03-06T13:23:29.522Z,92726.47
2023-03-06T13:26:31.834Z,92728.63
2023-03-06T13:28:58.587Z,92696.59
2023-03-06T13:31:34.051Z,92727.63
2023-03-06T13:34:04.673Z,92732.72
2023-03-06T13:36:33.119Z,92722.19
2023-03-06T13:39:09.930Z,92709.84
2023-03-06T13:41:57.821Z,92727.31
2023-03-06T13:44:24.372Z,92718.75
2023-03-06T13:47:00.586Z,92707.09
2023-03-06T13:49:46.558Z,92716.69
2023-03-06T13:52:32.645Z,92713.56
2023-03-06T13:55:13.183Z,92699.13
2023-03-06T13:58:21.909Z,92720.41
2023-03-06T14:01:00.543Z,92711.09
2023-03-06T14:03:33.879Z,92716.16
2023-03-06T14:06:00.371Z,92707.53
2023-03-06T14:08:33.960Z,92705.78
2023-03-06T14:11:08.646Z,92688.53
2023-03-06T14:13:47.421Z,92698.06
2023-03-06T14:16:21.329Z,92699.84
2023-03-06T14:18:55.093Z,92696.81
2023-03-06T14:21:30.764Z,92706.38
2023-03-06T14:24:05.093Z,92709.22
2023-03-06T14:26:41.917Z,92703.25
2023-03-06T14:29:21.167Z,92679.44
2023-03-06T14:31:50.930Z,92694.31
2023-03-06T14:34:22.289Z,92706.06
2023-03-06T14:36:54.178Z,92709.53
2023-03-06T14:39:41.157Z,92705.59
2023-03-06T14:42:26.837Z,92708.06
2023-03-06T14:45:05.436Z,92705.81
2023-03-06T14:47:34.330Z,92704.03
2023-03-06T14:50:23.086Z,92703.31
2023-03-06T14:52:54.102Z,92691.03
2023-03-06T14:55:24.129Z,92686.09
2023-03-06T14:58:17.913Z,92688.56
2023-03-06T15:00:55.096Z,92679.34
2023-03-06T15:03:42.989Z,92680.06
2023-03-06T15:06:47.171Z,92707.38
2023-03-06T15:09:13.517Z,92702.34
2023-03-06T15:11:56.977Z,92699.13
2023-03-06T15:14:39.315Z,92692.69
2023-03-06T15:17:17.858Z,92706.00
2023-03-06T15:19:57.513Z,92700.59
2023-03-06T15:22:28.606Z,92709.44
2023-03-06T15:25:26.632Z,92700.53
2023-03-06T15:28:01.082Z,92699.47
2023-03-06T15:30:32.956Z,92689.88
2023-03-06T15:33:31.642Z,92702.47
2023-03-06T15:36:01.959Z,92701.66
2023-03-06T15:38:36.183Z,92703.47
2023-03-06T15:41:05.226Z,92690.81
2023-03-06T15:43:39.601Z,92699.13
2023-03-06T15:46:07.604Z,92686.81
2023-03-06T15:48:35.330Z,92678.75
2023-03-06T15:51:09.119Z,92693.75
2023-03-06T15:53:35.507Z,92689.41
2023-03-06T15:56:02.070Z,92678.03
2023-03-06T15:58:32.024Z,92696.31
2023-03-06T16:01:01.678Z,92679.63
2023-03-06T16:03:28.089Z,92706.47
2023-03-06T16:05:54.484Z,92674.28
2023-03-06T16:08:20.923Z,92682.75
2023-03-06T16:10:47.968Z,92706.41
2023-03-06T16:13:25.261Z,92704.81
2023-03-06T16:15:51.960Z,92711.97
2023-03-06T16:18:19.348Z,92703.75
2023-03-06T16:20:46.455Z,92694.38
2023-03-06T16:23:16.803Z,92675.56
2023-03-06T16:25:48.515Z,92698.25
2023-03-06T16:28:16.386Z,92698.94
2023-03-06T16:30:44.511Z,92697.75
2023-03-06T16:33:12.179Z,92699.53
2023-03-06T16:35:41.153Z,92698.81
2023-03-06T16:38:07.643Z,92698.88
2023-03-06T16:40:38.755Z,92699.22
2023-03-06T16:43:05.367Z,92687.47
2023-03-06T16:45:36.362Z,92702.75
2023-03-06T16:48:02.775Z,92684.91
2023-03-06T16:50:36.925Z,92695.63
2023-03-06T16:53:05.345Z,92687.63
2023-03-06T16:55:31.923Z,92685.44
2023-03-06T16:57:58.379Z,92691.38
2023-03-06T17:00:31.127Z,92683.91
2023-03-06T17:02:57.868Z,92673.69
2023-03-06T17:05:26.314Z,92681.44
2023-03-06T17:07:52.691Z,92683.22
2023-03-06T17:10:22.626Z,92697.25
2023-03-06T17:12:49.218Z,92683.56
2023-03-06T17:15:17.979Z,92687.94
2023-03-06T17:17:44.692Z,92698.34
2023-03-06T17:20:11.949Z,92704.91
2023-03-06T17:22:38.769Z,92693.47
2023-03-06T17:25:06.890Z,92705.09
2023-03-06T17:27:42.663Z,92702.59
2023-03-06T17:30:10.736Z,92695.13
2023-03-06T17:32:38.026Z,92722.88
2023-03-06T17:35:05.130Z,92703.94
2023-03-06T17:37:31.925Z,92721.44
2023-03-06T17:39:58.329Z,92706.06
2023-03-06T17:42:27.571Z,92709.06
2023-03-06T17:44:53.960Z,92711.03
2023-03-06T17:47:20.584Z,92730.53
2023-03-06T17:49:47.008Z,92714.78
2023-03-06T17:52:13.380Z,92715.22
2023-03-06T17:54:39.725Z,92717.03
2023-03-06T17:57:06.253Z,92742.81
2023-03-06T17:59:36.088Z,92732.50
2023-03-06T18:02:03.762Z,92722.88
2023-03-06T18:04:30.313Z,92724.28
2023-03-06T18:06:58.223Z,92737.28
2023-03-06T18:09:24.806Z,92748.50
2023-03-06T18:11:51.284Z,92721.28
2023-03-06T18:14:17.833Z,92736.75
2023-03-06T18:16:50.406Z,92744.94
2023-03-06T18:19:17.614Z,92727.34
2023-03-06T18:21:44.076Z,92744.38
2023-03-06T18:24:11.362Z,92735.16
2023-03-06T18:26:39.948Z,92721.28
2023-03-06T18:29:06.373Z,92728.56
2023-03-06T18:31:34.784Z,92754.44
2023-03-06T18:34:13.663Z,92757.06
2023-03-06T18:36:42.443Z,92750.38
2023-03-06T18:39:11.516Z,92744.34
2023-03-06T18:41:37.970Z,92742.56
2023-03-06T18:44:05.009Z,92739.78
2023-03-06T18:46:36.837Z,92748.22
2023-03-06T18:49:07.336Z,92749.97
2023-03-06T18:51:34.093Z,92746.34
2023-03-06T18:54:02.003Z,92766.47
2023-03-06T18:56:28.440Z,92732.06
2023-03-06T18:58:54.907Z,92761.09
2023-03-06T19:01:23.050Z,92740.13
2023-03-06T19:03:49.621Z,92764.47
2023-03-06T19:06:16.935Z,92749.88
2023-03-06T19:08:43.481Z,92751.91
2023-03-06T19:11:13.551Z,92776.34
2023-03-06T19:13:40.449Z,92749.75
2023-03-06T19:16:15.389Z,92751.56
2023-03-06T19:18:41.817Z,92751.66
2023-03-06T19:21:19.990Z,92776.72
2023-03-06T19:23:46.999Z,92766.19
2023-03-06T19:26:14.271Z,92789.19
2023-03-06T19:28:42.342Z,92771.13
2023-03-06T19:31:14.071Z,92767.88
2023-03-06T19:33:41.837Z,92767.22
2023-03-06T19:36:10.771Z,92794.47
2023-03-06T19:38:37.582Z,92770.69
2023-03-06T19:41:04.356Z,92779.47
2023-03-06T19:43:31.011Z,92785.09
2023-03-06T19:46:04.897Z,92772.28
2023-03-06T19:48:31.463Z,92768.81
2023-03-06T19:51:13.621Z,92780.97
2023-03-06T19:53:40.281Z,92763.00
2023-03-06T19:56:14.529Z,92777.69
2023-03-06T19:58:43.146Z,92775.03
2023-03-06T20:01:12.093Z,92794.25
2023-03-06T20:03:39.102Z,92783.91
2023-03-06T20:06:08.923Z,92761.97
2023-03-06T20:08:36.417Z,92777.75
2023-03-06T20:11:03.976Z,92747.78
2023-03-06T20:13:31.342Z,92793.69
2023-03-06T20:16:01.621Z,92778.00
2023-03-06T20:18:28.023Z,92773.31
2023-03-06T20:20:59.142Z,92796.94
2023-03-06T20:23:26.166Z,92769.41
2023-03-06T20:26:07.232Z,92760.59
2023-03-06T20:28:33.803Z,92779.31
2023-03-06T20:31:06.472Z,92787.50
2023-03-06T20:33:33.045Z,92787.84
2023-03-06T20:35:59.478Z,92782.91
2023-03-06T20:38:25.873Z,92781.56
2023-03-06T20:40:55.747Z,92774.22
2023-03-06T20:43:22.336Z,92775.41
2023-03-06T20:46:02.225Z,92787.16
2023-03-06T20:48:29.419Z,92790.00
2023-03-06T20:51:00.885Z,92791.50
2023-03-06T20:53:27.334Z,92761.84
2023-03-06T20:55:54.121Z,92762.88
2023-03-06T20:58:21.970Z,92778.69
2023-03-06T21:00:48.342Z,92779.47
2023-03-06T21:03:14.933Z,92765.06
2023-03-06T21:05:41.345Z,92771.47
2023-03-06T21:08:07.821Z,92750.06
2023-03-06T21:10:34.213Z,92758.44
2023-03-06T21:13:00.645Z,92775.50
2023-03-06T21:15:29.914Z,92775.09
2023-03-06T21:17:56.666Z,92757.16
2023-03-06T21:20:23.802Z,92778.00
2023-03-06T21:22:51.891Z,92778.34
2023-03-06T21:25:18.277Z,92762.31
2023-03-06T21:27:44.637Z,92757.16
2023-03-06T21:30:11.670Z,92759.44
2023-03-06T21:32:38.133Z,92775.38
2023-03-06T21:35:04.920Z,92757.03
2023-03-06T21:37:32.405Z,92750.69
2023-03-06T21:40:00.074Z,92766.66
2023-03-06T21:42:26.486Z,92746.34
2023-03-06T21:44:53.029Z,92732.22
2023-03-06T21:47:19.788Z,92726.25
2023-03-06T21:49:49.576Z,92745.03
2023-03-06T21:52:15.947Z,92740.34
2023-03-06T21:54:42.328Z,92751.84
2023-03-06T21:57:08.798Z,92723.41
2023-03-06T21:59:36.688Z,92719.25
2023-03-06T22:02:03.154Z,92708.06
2023-03-06T22:04:29.629Z,92721.69
2023-03-06T22:06:56.190Z,92728.91
2023-03-06T22:09:22.645Z,92685.88
2023-03-06T22:11:49.074Z,92707.97
2023-03-06T22:14:15.661Z,92735.97
2023-03-06T22:16:42.184Z,92732.91
2023-03-06T22:19:08.638Z,92726.50
2023-03-06T22:21:35.025Z,92715.50
2023-03-06T22:24:01.451Z,92703.41
2023-03-06T22:26:29.212Z,92727.19
2023-03-06T22:28:56.122Z,92727.53
2023-03-06T22:31:28.774Z,92729.00
2023-03-06T22:33:56.931Z,92707.38
2023-03-06T22:36:23.954Z,92710.00
2023-03-06T22:38:54.189Z,92707.00
2023-03-06T22:41:20.932Z,92719.25
2023-03-06T22:43:48.098Z,92697.31
2023-03-06T22:46:18.120Z,92721.91
2023-03-06T22:48:45.167Z,92721.34
2023-03-06T22:51:14.361Z,92722.44
2023-03-06T22:53:41.036Z,92712.41
2023-03-06T22:56:10.077Z,92691.69
2023-03-06T22:58:37.441Z,92695.59
2023-03-06T23:01:18.576Z,92709.13
2023-03-06T23:03:47.895Z,92706.38
2023-03-06T23:06:18.939Z,92703.88
2023-03-06T23:08:50.016Z,92677.41
2023-03-06T23:11:19.407Z,92700.25
2023-03-06T23:13:45.997Z,92676.41
2023-03-06T23:16:12.954Z,92701.41
2023-03-06T23:18:41.398Z,92692.84
2023-03-06T23:21:14.041Z,92689.66
2023-03-06T23:23:40.868Z,92689.75
2023-03-06T23:26:08.339Z,92683.38
2023-03-06T23:28:35.136Z,92694.34
2023-03-06T23:31:07.945Z,92688.97
2023-03-06T23:33:34.962Z,92687.94
2023-03-06T23:36:06.649Z,92695.78
2023-03-06T23:38:39.150Z,92698.34
2023-03-06T23:41:08.278Z,92667.50
2023-03-06T23:43:35.061Z,92694.69
2023-03-06T23:46:01.530Z,92684.72
2023-03-06T23:48:28.593Z,92677.22
2023-03-06T23:50:55.660Z,92694.81
2023-03-06T23:53:22.598Z,92696.19
2023-03-06T23:55:50.104Z,92687.03
2023-03-06T23:58:17.827Z,92688.50
